sensor_id;sensor_type;location;lat;lon;timestamp;noise_LAeq;noise_LA_min;noise_LA_max;noise_LA01;noise_LA95
45109;Laerm;30447;48.742;8.972;2023-04-24T00:00:43;39.08;34.69;43.77;;
45109;Laerm;30447;48.742;8.972;2023-04-24T00:03:11;38.11;33.90;46.52;;
45109;Laerm;30447;48.742;8.972;2023-04-24T00:05:38;38.05;33.90;41.14;;
45109;Laerm;30447;48.742;8.972;2023-04-24T00:08:06;38.08;33.90;40.80;;
45109;Laerm;30447;48.742;8.972;2023-04-24T00:10:32;37.83;33.44;41.06;;
45109;Laerm;30447;48.742;8.972;2023-04-24T00:12:59;37.46;33.44;41.61;;
45109;Laerm;30447;48.742;8.972;2023-04-24T00:15:25;37.54;33.44;43.72;;
45109;Laerm;30447;48.742;8.972;2023-04-24T00:17:52;37.58;33.44;40.13;;
45109;Laerm;30447;48.742;8.972;2023-04-24T00:20:19;37.69;33.44;41.14;;
45109;Laerm;30447;48.742;8.972;2023-04-24T00:22:46;37.43;33.44;40.13;;
45109;Laerm;30447;48.742;8.972;2023-04-24T00:25:12;37.66;33.44;41.82;;
45109;Laerm;30447;48.742;8.972;2023-04-24T00:27:39;37.69;33.44;40.45;;
45109;Laerm;30447;48.742;8.972;2023-04-24T00:30:06;37.54;32.93;40.23;;
45109;Laerm;30447;48.742;8.972;2023-04-24T00:32:32;37.50;33.44;40.03;;
45109;Laerm;30447;48.742;8.972;2023-04-24T00:34:59;37.46;33.44;40.13;;
45109;Laerm;30447;48.742;8.972;2023-04-24T00:37:25;37.72;33.44;45.14;;
45109;Laerm;30447;48.742;8.972;2023-04-24T00:39:51;37.84;33.90;42.76;;
45109;Laerm;30447;48.742;8.972;2023-04-24T00:42:18;37.76;33.90;48.97;;
45109;Laerm;30447;48.742;8.972;2023-04-24T00:44:44;37.68;33.90;40.53;;
45109;Laerm;30447;48.742;8.972;2023-04-24T00:47:12;37.53;33.44;40.13;;
45109;Laerm;30447;48.742;8.972;2023-04-24T00:49:39;37.47;33.44;45.97;;
45109;Laerm;30447;48.742;8.972;2023-04-24T00:52:05;37.52;32.35;50.71;;
45109;Laerm;30447;48.742;8.972;2023-04-24T00:54:35;37.89;32.93;48.02;;
45109;Laerm;30447;48.742;8.972;2023-04-24T00:57:05;37.66;32.93;41.14;;
45109;Laerm;30447;48.742;8.972;2023-04-24T00:59:32;37.39;32.93;40.03;;
45109;Laerm;30447;48.742;8.972;2023-04-24T01:01:59;37.63;33.44;40.23;;
45109;Laerm;30447;48.742;8.972;2023-04-24T01:04:25;38.57;33.90;42.03;;
45109;Laerm;30447;48.742;8.972;2023-04-24T01:06:54;37.75;33.44;40.62;;
45109;Laerm;30447;48.742;8.972;2023-04-24T01:09:23;37.54;32.93;40.13;;
45109;Laerm;30447;48.742;8.972;2023-04-24T01:11:50;37.34;33.44;39.92;;
45109;Laerm;30447;48.742;8.972;2023-04-24T01:14:17;37.42;33.44;39.92;;
45109;Laerm;30447;48.742;8.972;2023-04-24T01:16:43;38.68;35.04;41.82;;
45109;Laerm;30447;48.742;8.972;2023-04-24T01:19:10;38.13;33.44;40.80;;
45109;Laerm;30447;48.742;8.972;2023-04-24T01:21:38;38.22;34.31;41.89;;
45109;Laerm;30447;48.742;8.972;2023-04-24T01:24:06;38.08;33.44;41.61;;
45109;Laerm;30447;48.742;8.972;2023-04-24T01:26:33;37.81;33.44;40.71;;
45109;Laerm;30447;48.742;8.972;2023-04-24T01:28:59;38.17;34.31;40.89;;
45109;Laerm;30447;48.742;8.972;2023-04-24T01:31:26;37.98;33.44;40.89;;
45109;Laerm;30447;48.742;8.972;2023-04-24T01:33:53;38.28;33.90;41.30;;
45109;Laerm;30447;48.742;8.972;2023-04-24T01:36:21;37.80;33.44;40.53;;
45109;Laerm;30447;48.742;8.972;2023-04-24T01:38:48;37.96;33.90;42.88;;
45109;Laerm;30447;48.742;8.972;2023-04-24T01:41:15;37.72;32.93;40.23;;
45109;Laerm;30447;48.742;8.972;2023-04-24T01:43:42;37.97;34.31;42.03;;
45109;Laerm;30447;48.742;8.972;2023-04-24T01:46:08;38.10;33.44;42.82;;
45109;Laerm;30447;48.742;8.972;2023-04-24T01:48:35;37.57;33.44;40.33;;
45109;Laerm;30447;48.742;8.972;2023-04-24T01:51:01;37.64;32.93;40.98;;
45109;Laerm;30447;48.742;8.972;2023-04-24T01:53:28;37.60;32.93;40.71;;
45109;Laerm;30447;48.742;8.972;2023-04-24T01:55:54;37.52;33.44;40.89;;
45109;Laerm;30447;48.742;8.972;2023-04-24T01:58:22;37.66;33.44;53.45;;
45109;Laerm;30447;48.742;8.972;2023-04-24T02:00:48;37.69;33.44;40.80;;
45109;Laerm;30447;48.742;8.972;2023-04-24T02:03:15;38.11;34.31;46.40;;
45109;Laerm;30447;48.742;8.972;2023-04-24T02:05:44;38.22;33.44;45.60;;
45109;Laerm;30447;48.742;8.972;2023-04-24T02:08:11;37.65;33.90;44.62;;
45109;Laerm;30447;48.742;8.972;2023-04-24T02:10:37;37.41;33.44;44.76;;
45109;Laerm;30447;48.742;8.972;2023-04-24T02:13:04;37.39;32.35;40.13;;
45109;Laerm;30447;48.742;8.972;2023-04-24T02:15:30;37.74;33.90;43.49;;
45109;Laerm;30447;48.742;8.972;2023-04-24T02:17:57;37.87;33.90;41.68;;
45109;Laerm;30447;48.742;8.972;2023-04-24T02:20:24;37.66;32.93;40.45;;
45109;Laerm;30447;48.742;8.972;2023-04-24T02:22:50;37.78;33.09;41.22;;
45109;Laerm;30447;48.742;8.972;2023-04-24T02:25:17;37.74;33.90;40.62;;
45109;Laerm;30447;48.742;8.972;2023-04-24T02:27:43;37.91;33.44;40.89;;
45109;Laerm;30447;48.742;8.972;2023-04-24T02:30:10;38.84;35.04;58.21;;
45109;Laerm;30447;48.742;8.972;2023-04-24T02:32:36;41.26;35.66;48.13;;
45109;Laerm;30447;48.742;8.972;2023-04-24T02:35:03;40.64;36.69;46.02;;
45109;Laerm;30447;48.742;8.972;2023-04-24T02:37:29;38.75;35.66;41.61;;
45109;Laerm;30447;48.742;8.972;2023-04-24T02:39:56;38.25;34.69;42.22;;
45109;Laerm;30447;48.742;8.972;2023-04-24T02:42:22;38.85;35.04;42.16;;
45109;Laerm;30447;48.742;8.972;2023-04-24T02:44:49;38.64;34.69;53.14;;
45109;Laerm;30447;48.742;8.972;2023-04-24T02:47:17;38.59;34.69;42.41;;
45109;Laerm;30447;48.742;8.972;2023-04-24T02:49:43;38.58;35.04;42.93;;
45109;Laerm;30447;48.742;8.972;2023-04-24T02:52:10;38.82;35.66;42.88;;
45109;Laerm;30447;48.742;8.972;2023-04-24T02:54:36;39.27;36.20;43.00;;
45109;Laerm;30447;48.742;8.972;2023-04-24T02:57:03;38.95;35.66;41.82;;
45109;Laerm;30447;48.742;8.972;2023-04-24T02:59:29;38.82;34.31;42.88;;
45109;Laerm;30447;48.742;8.972;2023-04-24T03:01:56;38.49;34.31;45.27;;
45109;Laerm;30447;48.742;8.972;2023-04-24T03:04:22;39.23;35.04;60.78;;
45109;Laerm;30447;48.742;8.972;2023-04-24T03:06:49;38.75;35.36;47.34;;
45109;Laerm;30447;48.742;8.972;2023-04-24T03:09:18;38.90;34.69;41.38;;
45109;Laerm;30447;48.742;8.972;2023-04-24T03:11:44;39.03;35.66;43.19;;
45109;Laerm;30447;48.742;8.972;2023-04-24T03:14:11;38.81;34.69;41.89;;
45109;Laerm;30447;48.742;8.972;2023-04-24T03:16:37;38.95;35.66;41.53;;
45109;Laerm;30447;48.742;8.972;2023-04-24T03:19:04;39.40;36.20;46.02;;
45109;Laerm;30447;48.742;8.972;2023-04-24T03:21:30;39.50;36.20;47.20;;
45109;Laerm;30447;48.742;8.972;2023-04-24T03:23:57;40.22;36.45;53.21;;
45109;Laerm;30447;48.742;8.972;2023-04-24T03:26:23;40.20;36.20;54.43;;
45109;Laerm;30447;48.742;8.972;2023-04-24T03:28:49;40.22;36.20;52.35;;
45109;Laerm;30447;48.742;8.972;2023-04-24T03:31:16;41.55;35.94;52.17;;
45109;Laerm;30447;48.742;8.972;2023-04-24T03:33:42;43.03;37.12;57.86;;
45109;Laerm;30447;48.742;8.972;2023-04-24T03:36:09;42.31;36.69;56.30;;
45109;Laerm;30447;48.742;8.972;2023-04-24T03:38:35;42.60;37.32;54.09;;
45109;Laerm;30447;48.742;8.972;2023-04-24T03:41:02;42.06;37.52;55.63;;
45109;Laerm;30447;48.742;8.972;2023-04-24T03:43:28;41.94;38.21;54.67;;
45109;Laerm;30447;48.742;8.972;2023-04-24T03:45:55;43.39;38.21;54.81;;
45109;Laerm;30447;48.742;8.972;2023-04-24T03:48:21;43.96;37.88;57.11;;
45109;Laerm;30447;48.742;8.972;2023-04-24T03:50:48;43.79;37.52;55.60;;
45109;Laerm;30447;48.742;8.972;2023-04-24T03:53:14;43.56;38.21;58.78;;
45109;Laerm;30447;48.742;8.972;2023-04-24T03:55:41;44.43;37.88;55.91;;
45109;Laerm;30447;48.742;8.972;2023-04-24T03:58:07;44.19;37.52;56.81;;
45109;Laerm;30447;48.742;8.972;2023-04-24T04:00:34;44.30;38.05;60.48;;
45109;Laerm;30447;48.742;8.972;2023-04-24T04:03:00;44.75;38.67;59.77;;
45109;Laerm;30447;48.742;8.972;2023-04-24T04:05:27;44.33;38.21;61.28;;
45109;Laerm;30447;48.742;8.972;2023-04-24T04:07:53;42.33;39.08;54.29;;
45109;Laerm;30447;48.742;8.972;2023-04-24T04:10:20;43.33;40.03;57.85;;
45109;Laerm;30447;48.742;8.972;2023-04-24T04:12:47;43.41;39.92;52.88;;
45109;Laerm;30447;48.742;8.972;2023-04-24T04:15:13;44.20;40.89;58.88;;
45109;Laerm;30447;48.742;8.972;2023-04-24T04:17:40;44.40;41.30;54.69;;
45109;Laerm;30447;48.742;8.972;2023-04-24T04:20:07;45.45;41.14;62.60;;
45109;Laerm;30447;48.742;8.972;2023-04-24T04:22:36;44.54;41.96;52.14;;
45109;Laerm;30447;48.742;8.972;2023-04-24T04:25:03;44.63;42.41;50.45;;
45109;Laerm;30447;48.742;8.972;2023-04-24T04:27:30;44.33;41.82;53.07;;
45109;Laerm;30447;48.742;8.972;2023-04-24T04:29:58;44.80;42.47;56.73;;
45109;Laerm;30447;48.742;8.972;2023-04-24T04:32:27;45.41;42.47;57.87;;
45109;Laerm;30447;48.742;8.972;2023-04-24T04:34:53;45.33;42.41;56.94;;
45109;Laerm;30447;48.742;8.972;2023-04-24T04:37:20;45.60;42.47;57.08;;
45109;Laerm;30447;48.742;8.972;2023-04-24T04:39:47;46.00;42.22;61.10;;
45109;Laerm;30447;48.742;8.972;2023-04-24T04:42:13;50.42;42.09;68.36;;
45109;Laerm;30447;48.742;8.972;2023-04-24T04:44:39;49.22;42.93;67.94;;
45109;Laerm;30447;48.742;8.972;2023-04-24T04:47:06;47.90;42.41;66.23;;
45109;Laerm;30447;48.742;8.972;2023-04-24T04:49:33;48.28;41.82;67.71;;
45109;Laerm;30447;48.742;8.972;2023-04-24T04:52:00;44.86;42.16;56.35;;
45109;Laerm;30447;48.742;8.972;2023-04-24T04:54:27;47.66;41.94;69.01;;
45109;Laerm;30447;48.742;8.972;2023-04-24T04:56:53;46.27;42.53;61.29;;
45109;Laerm;30447;48.742;8.972;2023-04-24T04:59:20;45.66;42.16;61.89;;
45109;Laerm;30447;48.742;8.972;2023-04-24T05:01:46;45.09;42.35;53.03;;
45109;Laerm;30447;48.742;8.972;2023-04-24T05:04:13;46.65;42.59;58.10;;
45109;Laerm;30447;48.742;8.972;2023-04-24T05:06:39;45.75;42.69;62.77;;
45109;Laerm;30447;48.742;8.972;2023-04-24T05:09:06;45.62;42.35;63.08;;
45109;Laerm;30447;48.742;8.972;2023-04-24T05:11:33;45.22;42.53;58.05;;
45109;Laerm;30447;48.742;8.972;2023-04-24T05:14:00;44.72;41.75;55.20;;
45109;Laerm;30447;48.742;8.972;2023-04-24T05:16:26;44.31;41.82;53.92;;
45109;Laerm;30447;48.742;8.972;2023-04-24T05:18:52;44.19;41.46;56.92;;
45109;Laerm;30447;48.742;8.972;2023-04-24T05:21:19;44.82;42.22;54.04;;
45109;Laerm;30447;48.742;8.972;2023-04-24T05:23:46;45.27;41.89;58.91;;
45109;Laerm;30447;48.742;8.972;2023-04-24T05:26:13;44.93;41.06;59.88;;
45109;Laerm;30447;48.742;8.972;2023-04-24T05:28:40;44.02;41.14;54.27;;
45109;Laerm;30447;48.742;8.972;2023-04-24T05:31:07;45.14;41.96;50.74;;
45109;Laerm;30447;48.742;8.972;2023-04-24T05:33:33;44.17;41.82;56.25;;
45109;Laerm;30447;48.742;8.972;2023-04-24T05:35:59;46.93;40.71;58.86;;
45109;Laerm;30447;48.742;8.972;2023-04-24T05:38:26;44.41;42.22;59.10;;
45109;Laerm;30447;48.742;8.972;2023-04-24T05:40:52;45.85;41.61;59.82;;
45109;Laerm;30447;48.742;8.972;2023-04-24T05:43:19;46.14;42.53;60.04;;
45109;Laerm;30447;48.742;8.972;2023-04-24T05:45:45;45.44;42.47;55.71;;
45109;Laerm;30447;48.742;8.972;2023-04-24T05:48:12;48.26;42.29;60.24;;
45109;Laerm;30447;48.742;8.972;2023-04-24T05:50:38;45.30;42.16;53.29;;
45109;Laerm;30447;48.742;8.972;2023-04-24T05:53:06;45.13;42.22;53.70;;
45109;Laerm;30447;48.742;8.972;2023-04-24T05:55:33;45.11;41.46;62.65;;
45109;Laerm;30447;48.742;8.972;2023-04-24T05:58:00;44.26;41.46;52.97;;
45109;Laerm;30447;48.742;8.972;2023-04-24T06:00:26;46.34;40.23;62.55;;
45109;Laerm;30447;48.742;8.972;2023-04-24T06:02:53;50.71;39.81;67.87;;
45109;Laerm;30447;48.742;8.972;2023-04-24T06:05:20;42.03;38.67;55.94;;
45109;Laerm;30447;48.742;8.972;2023-04-24T06:07:47;43.05;39.46;54.29;;
45109;Laerm;30447;48.742;8.972;2023-04-24T06:10:14;43.47;39.92;56.94;;
45109;Laerm;30447;48.742;8.972;2023-04-24T06:12:40;44.70;40.71;57.21;;
45109;Laerm;30447;48.742;8.972;2023-04-24T06:15:07;46.17;40.13;62.01;;
45109;Laerm;30447;48.742;8.972;2023-04-24T06:17:34;44.26;41.06;56.49;;
45109;Laerm;30447;48.742;8.972;2023-04-24T06:20:00;43.69;40.33;54.24;;
45109;Laerm;30447;48.742;8.972;2023-04-24T06:22:27;43.86;39.92;53.74;;
45109;Laerm;30447;48.742;8.972;2023-04-24T06:24:54;43.89;39.78;57.67;;
45109;Laerm;30447;48.742;8.972;2023-04-24T06:27:20;42.86;39.46;52.29;;
45109;Laerm;30447;48.742;8.972;2023-04-24T06:29:46;43.34;39.21;56.38;;
45109;Laerm;30447;48.742;8.972;2023-04-24T06:32:24;44.18;38.74;55.01;;
45109;Laerm;30447;48.742;8.972;2023-04-24T06:34:54;46.60;38.21;60.30;;
45109;Laerm;30447;48.742;8.972;2023-04-24T06:37:20;43.32;38.21;53.92;;
45109;Laerm;30447;48.742;8.972;2023-04-24T06:39:47;43.16;38.67;53.53;;
45109;Laerm;30447;48.742;8.972;2023-04-24T06:42:14;42.98;38.81;55.20;;
45109;Laerm;30447;48.742;8.972;2023-04-24T06:44:40;45.09;38.81;56.01;;
45109;Laerm;30447;48.742;8.972;2023-04-24T06:47:08;43.83;38.67;62.38;;
45109;Laerm;30447;48.742;8.972;2023-04-24T06:49:36;42.30;39.21;52.48;;
45109;Laerm;30447;48.742;8.972;2023-04-24T06:52:03;42.65;39.46;54.91;;
45109;Laerm;30447;48.742;8.972;2023-04-24T06:54:30;42.89;39.70;53.88;;
45109;Laerm;30447;48.742;8.972;2023-04-24T06:56:57;43.00;38.74;55.91;;
45109;Laerm;30447;48.742;8.972;2023-04-24T06:59:24;43.42;39.58;51.13;;
45109;Laerm;30447;48.742;8.972;2023-04-24T07:01:51;43.60;40.98;53.54;;
45109;Laerm;30447;48.742;8.972;2023-04-24T07:04:18;44.31;40.98;52.84;;
45109;Laerm;30447;48.742;8.972;2023-04-24T07:06:45;45.32;41.88;54.33;;
45109;Laerm;30447;48.742;8.972;2023-04-24T07:09:12;44.87;41.38;56.92;;
45109;Laerm;30447;48.742;8.972;2023-04-24T07:11:40;44.62;41.96;52.66;;
45109;Laerm;30447;48.742;8.972;2023-04-24T07:14:07;44.98;41.53;59.70;;
45109;Laerm;30447;48.742;8.972;2023-04-24T07:16:33;46.03;41.82;58.47;;
45109;Laerm;30447;48.742;8.972;2023-04-24T07:19:00;44.06;41.22;51.59;;
45109;Laerm;30447;48.742;8.972;2023-04-24T07:21:26;44.06;40.62;56.15;;
45109;Laerm;30447;48.742;8.972;2023-04-24T07:23:54;44.54;41.68;57.04;;
45109;Laerm;30447;48.742;8.972;2023-04-24T07:26:20;44.32;41.61;52.08;;
45109;Laerm;30447;48.742;8.972;2023-04-24T07:28:46;43.75;40.13;53.63;;
45109;Laerm;30447;48.742;8.972;2023-04-24T07:31:13;43.90;41.06;54.19;;
45109;Laerm;30447;48.742;8.972;2023-04-24T07:33:39;45.09;41.68;56.42;;
45109;Laerm;30447;48.742;8.972;2023-04-24T07:36:06;47.14;41.89;70.44;;
45109;Laerm;30447;48.742;8.972;2023-04-24T07:38:33;45.44;41.96;57.26;;
45109;Laerm;30447;48.742;8.972;2023-04-24T07:40:59;46.74;41.82;64.14;;
45109;Laerm;30447;48.742;8.972;2023-04-24T07:43:26;44.33;41.75;52.54;;
45109;Laerm;30447;48.742;8.972;2023-04-24T07:45:53;47.14;41.30;59.68;;
45109;Laerm;30447;48.742;8.972;2023-04-24T07:48:20;45.86;41.82;58.09;;
45109;Laerm;30447;48.742;8.972;2023-04-24T07:50:48;44.05;41.22;51.97;;
45109;Laerm;30447;48.742;8.972;2023-04-24T07:53:14;48.59;42.16;64.44;;
45109;Laerm;30447;48.742;8.972;2023-04-24T07:55:41;45.90;41.61;58.34;;
45109;Laerm;30447;48.742;8.972;2023-04-24T07:58:07;47.74;42.35;62.59;;
45109;Laerm;30447;48.742;8.972;2023-04-24T08:00:34;45.94;41.96;61.29;;
45109;Laerm;30447;48.742;8.972;2023-04-24T08:03:01;45.54;41.14;58.16;;
45109;Laerm;30447;48.742;8.972;2023-04-24T08:05:27;44.63;41.68;53.59;;
45109;Laerm;30447;48.742;8.972;2023-04-24T08:07:55;45.30;42.22;57.75;;
45109;Laerm;30447;48.742;8.972;2023-04-24T08:10:22;45.06;41.75;54.84;;
45109;Laerm;30447;48.742;8.972;2023-04-24T08:12:49;45.51;41.30;57.69;;
45109;Laerm;30447;48.742;8.972;2023-04-24T08:15:16;51.89;40.80;81.89;;
45109;Laerm;30447;48.742;8.972;2023-04-24T08:17:42;45.34;41.61;63.62;;
45109;Laerm;30447;48.742;8.972;2023-04-24T08:20:11;47.59;41.96;65.62;;
45109;Laerm;30447;48.742;8.972;2023-04-24T08:22:40;44.91;40.89;54.42;;
45109;Laerm;30447;48.742;8.972;2023-04-24T08:25:08;44.52;40.98;66.39;;
45109;Laerm;30447;48.742;8.972;2023-04-24T08:27:34;44.18;41.46;58.09;;
45109;Laerm;30447;48.742;8.972;2023-04-24T08:30:04;46.04;41.75;66.91;;
45109;Laerm;30447;48.742;8.972;2023-04-24T08:32:31;47.05;41.75;70.47;;
45109;Laerm;30447;48.742;8.972;2023-04-24T08:34:59;45.49;41.33;60.63;;
45109;Laerm;30447;48.742;8.972;2023-04-24T08:37:26;44.28;41.53;54.70;;
45109;Laerm;30447;48.742;8.972;2023-04-24T08:39:53;44.58;40.71;53.91;;
45109;Laerm;30447;48.742;8.972;2023-04-24T08:42:20;44.07;40.53;55.65;;
45109;Laerm;30447;48.742;8.972;2023-04-24T08:44:49;44.82;41.82;53.08;;
45109;Laerm;30447;48.742;8.972;2023-04-24T08:47:16;45.10;41.61;54.62;;
45109;Laerm;30447;48.742;8.972;2023-04-24T08:49:43;45.18;41.06;62.61;;
45109;Laerm;30447;48.742;8.972;2023-04-24T08:52:09;45.12;41.82;55.11;;
45109;Laerm;30447;48.742;8.972;2023-04-24T08:54:39;44.37;41.06;59.93;;
45109;Laerm;30447;48.742;8.972;2023-04-24T08:57:07;44.80;42.03;54.04;;
45109;Laerm;30447;48.742;8.972;2023-04-24T08:59:34;44.66;41.22;56.24;;
45109;Laerm;30447;48.742;8.972;2023-04-24T09:02:03;44.97;41.75;61.49;;
45109;Laerm;30447;48.742;8.972;2023-04-24T09:04:33;44.50;41.89;58.22;;
45109;Laerm;30447;48.742;8.972;2023-04-24T09:07:00;46.91;42.29;61.90;;
45109;Laerm;30447;48.742;8.972;2023-04-24T09:09:30;44.81;42.16;52.12;;
45109;Laerm;30447;48.742;8.972;2023-04-24T09:11:58;46.52;42.03;65.80;;
45109;Laerm;30447;48.742;8.972;2023-04-24T09:14:25;45.56;41.75;55.77;;
45109;Laerm;30447;48.742;8.972;2023-04-24T09:16:52;51.82;42.00;67.38;;
45109;Laerm;30447;48.742;8.972;2023-04-24T09:19:18;45.36;42.59;59.90;;
45109;Laerm;30447;48.742;8.972;2023-04-24T09:21:46;46.12;42.16;63.59;;
45109;Laerm;30447;48.742;8.972;2023-04-24T09:24:18;44.87;41.96;52.25;;
45109;Laerm;30447;48.742;8.972;2023-04-24T09:26:44;46.19;41.53;65.79;;
45109;Laerm;30447;48.742;8.972;2023-04-24T09:29:18;43.31;41.30;46.76;;
45109;Laerm;30447;48.742;8.972;2023-04-24T09:31:45;43.54;41.11;53.13;;
45109;Laerm;30447;48.742;8.972;2023-04-24T09:34:12;52.74;40.98;68.37;;
45109;Laerm;30447;48.742;8.972;2023-04-24T09:36:41;45.31;40.71;59.81;;
45109;Laerm;30447;48.742;8.972;2023-04-24T09:39:10;45.97;42.35;64.34;;
45109;Laerm;30447;48.742;8.972;2023-04-24T09:41:47;48.47;42.35;68.99;;
45109;Laerm;30447;48.742;8.972;2023-04-24T09:44:16;50.93;43.77;69.80;;
45109;Laerm;30447;48.742;8.972;2023-04-24T09:46:46;47.47;42.64;67.62;;
45109;Laerm;30447;48.742;8.972;2023-04-24T09:49:21;46.46;42.59;62.89;;
45109;Laerm;30447;48.742;8.972;2023-04-24T09:51:48;47.47;42.53;66.48;;
45109;Laerm;30447;48.742;8.972;2023-04-24T09:54:20;46.93;42.82;62.35;;
45109;Laerm;30447;48.742;8.972;2023-04-24T09:56:49;48.17;42.35;64.28;;
45109;Laerm;30447;48.742;8.972;2023-04-24T09:59:19;45.45;42.29;58.88;;
45109;Laerm;30447;48.742;8.972;2023-04-24T10:01:46;44.79;41.14;60.60;;
45109;Laerm;30447;48.742;8.972;2023-04-24T10:04:26;46.89;41.68;66.76;;
45109;Laerm;30447;48.742;8.972;2023-04-24T10:06:55;45.78;40.23;65.99;;
45109;Laerm;30447;48.742;8.972;2023-04-24T10:09:24;44.82;40.71;59.41;;
45109;Laerm;30447;48.742;8.972;2023-04-24T10:11:53;45.06;40.43;58.07;;
45109;Laerm;30447;48.742;8.972;2023-04-24T10:14:22;43.81;40.71;58.54;;
45109;Laerm;30447;48.742;8.972;2023-04-24T10:16:50;44.00;40.62;55.39;;
45109;Laerm;30447;48.742;8.972;2023-04-24T10:19:18;47.09;40.89;61.90;;
45109;Laerm;30447;48.742;8.972;2023-04-24T10:21:46;45.37;40.80;61.29;;
45109;Laerm;30447;48.742;8.972;2023-04-24T10:24:15;42.27;38.95;50.66;;
45109;Laerm;30447;48.742;8.972;2023-04-24T10:26:44;42.25;39.08;52.17;;
45109;Laerm;30447;48.742;8.972;2023-04-24T10:29:13;43.71;39.46;60.41;;
45109;Laerm;30447;48.742;8.972;2023-04-24T10:31:41;42.77;39.21;51.84;;
45109;Laerm;30447;48.742;8.972;2023-04-24T10:34:09;42.99;39.21;56.07;;
45109;Laerm;30447;48.742;8.972;2023-04-24T10:36:39;46.24;39.11;66.58;;
45109;Laerm;30447;48.742;8.972;2023-04-24T10:39:11;42.62;38.95;55.30;;
45109;Laerm;30447;48.742;8.972;2023-04-24T10:41:38;42.94;38.95;49.95;;
45109;Laerm;30447;48.742;8.972;2023-04-24T10:44:08;44.32;39.46;63.02;;
45109;Laerm;30447;48.742;8.972;2023-04-24T10:46:37;45.42;41.06;61.89;;
45109;Laerm;30447;48.742;8.972;2023-04-24T10:49:07;44.62;41.75;54.02;;
45109;Laerm;30447;48.742;8.972;2023-04-24T10:51:50;44.77;41.14;56.80;;
45109;Laerm;30447;48.742;8.972;2023-04-24T10:54:26;44.42;41.82;50.64;;
45109;Laerm;30447;48.742;8.972;2023-04-24T10:59:47;45.45;41.46;53.67;;
45109;Laerm;30447;48.742;8.972;2023-04-24T11:02:17;44.12;41.46;54.32;;
45109;Laerm;30447;48.742;8.972;2023-04-24T11:04:44;44.91;41.89;52.99;;
45109;Laerm;30447;48.742;8.972;2023-04-24T11:07:13;47.64;42.24;64.69;;
45109;Laerm;30447;48.742;8.972;2023-04-24T11:09:41;45.76;41.82;61.06;;
45109;Laerm;30447;48.742;8.972;2023-04-24T11:12:10;46.07;41.53;58.15;;
45109;Laerm;30447;48.742;8.972;2023-04-24T11:17:38;44.45;40.98;58.64;;
45109;Laerm;30447;48.742;8.972;2023-04-24T11:20:10;46.16;40.98;67.39;;
45109;Laerm;30447;48.742;8.972;2023-04-24T11:22:39;46.08;41.46;60.52;;
45109;Laerm;30447;48.742;8.972;2023-04-24T11:25:09;44.44;41.22;63.93;;
45109;Laerm;30447;48.742;8.972;2023-04-24T11:27:40;49.35;41.94;67.83;;
45109;Laerm;30447;48.742;8.972;2023-04-24T11:30:08;45.32;42.03;59.00;;
45109;Laerm;30447;48.742;8.972;2023-04-24T11:32:42;47.00;42.35;65.94;;
45109;Laerm;30447;48.742;8.972;2023-04-24T11:37:43;47.54;41.53;64.55;;
45109;Laerm;30447;48.742;8.972;2023-04-24T11:40:13;46.30;41.68;60.06;;
45109;Laerm;30447;48.742;8.972;2023-04-24T11:42:45;47.29;40.13;68.26;;
45109;Laerm;30447;48.742;8.972;2023-04-24T11:45:16;44.95;40.89;64.67;;
45109;Laerm;30447;48.742;8.972;2023-04-24T11:47:43;42.67;39.92;50.37;;
45109;Laerm;30447;48.742;8.972;2023-04-24T11:50:16;49.53;40.43;66.15;;
45109;Laerm;30447;48.742;8.972;2023-04-24T11:52:44;43.41;40.03;59.81;;
45109;Laerm;30447;48.742;8.972;2023-04-24T11:57:45;45.46;39.92;71.31;;
45109;Laerm;30447;48.742;8.972;2023-04-24T12:02:42;47.10;41.61;64.02;;
45109;Laerm;30447;48.742;8.972;2023-04-24T12:05:09;45.69;41.38;60.17;;
45109;Laerm;30447;48.742;8.972;2023-04-24T12:07:44;47.94;41.06;72.72;;
45109;Laerm;30447;48.742;8.972;2023-04-24T12:10:11;45.36;41.06;58.75;;
45109;Laerm;30447;48.742;8.972;2023-04-24T12:12:38;46.50;41.06;65.69;;
45109;Laerm;30447;48.742;8.972;2023-04-24T12:15:08;47.92;40.98;62.08;;
45109;Laerm;30447;48.742;8.972;2023-04-24T12:17:35;43.61;40.43;54.40;;
45109;Laerm;30447;48.742;8.972;2023-04-24T12:20:05;43.16;40.80;50.71;;
45109;Laerm;30447;48.742;8.972;2023-04-24T12:23:05;44.55;39.70;60.43;;
45109;Laerm;30447;48.742;8.972;2023-04-24T12:25:32;43.05;40.13;53.40;;
45109;Laerm;30447;48.742;8.972;2023-04-24T12:30:41;45.00;40.98;63.96;;
45109;Laerm;30447;48.742;8.972;2023-04-24T12:33:07;45.23;40.98;64.46;;
45109;Laerm;30447;48.742;8.972;2023-04-24T12:35:34;44.10;40.98;53.86;;
45109;Laerm;30447;48.742;8.972;2023-04-24T12:38:13;43.93;41.06;50.56;;
45109;Laerm;30447;48.742;8.972;2023-04-24T12:40:41;44.45;40.43;60.90;;
45109;Laerm;30447;48.742;8.972;2023-04-24T12:43:16;42.92;39.99;52.09;;
45109;Laerm;30447;48.742;8.972;2023-04-24T12:45:42;42.40;39.70;49.52;;
45109;Laerm;30447;48.742;8.972;2023-04-24T12:48:09;42.36;39.58;58.67;;
45109;Laerm;30447;48.742;8.972;2023-04-24T12:50:35;42.62;40.03;52.40;;
45109;Laerm;30447;48.742;8.972;2023-04-24T12:53:02;43.01;40.33;50.42;;
45109;Laerm;30447;48.742;8.972;2023-04-24T12:55:28;44.84;39.92;63.42;;
45109;Laerm;30447;48.742;8.972;2023-04-24T12:57:55;47.91;41.38;74.55;;
45109;Laerm;30447;48.742;8.972;2023-04-24T13:00:22;43.88;40.23;56.59;;
45109;Laerm;30447;48.742;8.972;2023-04-24T13:02:49;43.71;40.89;54.02;;
45109;Laerm;30447;48.742;8.972;2023-04-24T13:05:15;44.84;39.58;59.82;;
45109;Laerm;30447;48.742;8.972;2023-04-24T13:07:42;42.70;39.81;50.93;;
45109;Laerm;30447;48.742;8.972;2023-04-24T13:10:09;42.85;38.37;55.11;;
45109;Laerm;30447;48.742;8.972;2023-04-24T13:12:35;42.37;39.46;54.76;;
45109;Laerm;30447;48.742;8.972;2023-04-24T13:15:02;42.50;39.81;52.28;;
45109;Laerm;30447;48.742;8.972;2023-04-24T13:17:29;42.44;39.21;53.15;;
45109;Laerm;30447;48.742;8.972;2023-04-24T13:19:56;44.08;39.92;55.43;;
45109;Laerm;30447;48.742;8.972;2023-04-24T13:22:22;44.39;39.57;56.87;;
45109;Laerm;30447;48.742;8.972;2023-04-24T13:24:49;43.63;40.33;58.85;;
45109;Laerm;30447;48.742;8.972;2023-04-24T13:27:17;44.12;41.26;53.99;;
45109;Laerm;30447;48.742;8.972;2023-04-24T13:29:43;45.93;42.22;57.97;;
45109;Laerm;30447;48.742;8.972;2023-04-24T13:32:10;46.63;42.16;60.71;;
45109;Laerm;30447;48.742;8.972;2023-04-24T13:34:37;46.04;41.89;58.92;;
45109;Laerm;30447;48.742;8.972;2023-04-24T13:37:04;45.82;41.68;64.26;;
45109;Laerm;30447;48.742;8.972;2023-04-24T13:39:31;44.53;41.89;53.47;;
45109;Laerm;30447;48.742;8.972;2023-04-24T13:41:58;44.06;41.30;53.10;;
45109;Laerm;30447;48.742;8.972;2023-04-24T13:44:25;44.34;41.89;53.38;;
45109;Laerm;30447;48.742;8.972;2023-04-24T13:46:53;45.27;40.62;59.19;;
45109;Laerm;30447;48.742;8.972;2023-04-24T13:49:21;43.22;40.13;55.41;;
45109;Laerm;30447;48.742;8.972;2023-04-24T13:51:48;43.77;40.80;55.13;;
45109;Laerm;30447;48.742;8.972;2023-04-24T13:54:14;44.32;40.89;58.76;;
45109;Laerm;30447;48.742;8.972;2023-04-24T13:56:41;43.93;40.80;50.17;;
45109;Laerm;30447;48.742;8.972;2023-04-24T13:59:08;44.65;40.89;53.97;;
45109;Laerm;30447;48.742;8.972;2023-04-24T14:01:34;48.14;41.53;63.43;;